createdAt,value
2019-04-14T00:00:38.329Z,1006.94
2019-04-14T00:01:38.894Z,1006.90
2019-04-14T00:02:38.206Z,1006.92
2019-04-14T00:03:38.992Z,1006.91
2019-04-14T00:04:37.951Z,1006.93
2019-04-14T00:05:38.623Z,1006.91
2019-04-14T00:06:37.884Z,1006.88
2019-04-14T00:07:38.481Z,1006.93
2019-04-14T00:08:37.898Z,1006.93
2019-04-14T00:09:38.069Z,1006.90
2019-04-14T00:10:37.894Z,1006.92
2019-04-14T00:11:38.691Z,1006.88
2019-04-14T00:12:38.404Z,1006.86
2019-04-14T00:13:37.834Z,1006.88
2019-04-14T00:14:38.256Z,1006.92
2019-04-14T00:15:42.697Z,1006.88
2019-04-14T00:16:38.794Z,1006.88
2019-04-14T00:17:37.768Z,1006.85
2019-04-14T00:18:38.257Z,1006.88
2019-04-14T00:19:37.748Z,1006.87
2019-04-14T00:20:38.235Z,1006.82
2019-04-14T00:21:38.864Z,1006.85
2019-04-14T00:22:38.124Z,1006.84
2019-04-14T00:23:37.706Z,1006.83
2019-04-14T00:24:38.126Z,1006.78
2019-04-14T00:25:37.694Z,1006.81
2019-04-14T00:26:37.988Z,1006.82
2019-04-14T00:27:38.546Z,1006.75
2019-04-14T00:28:38.274Z,1006.77
2019-04-14T00:29:37.669Z,1006.80
2019-04-14T00:30:38.243Z,1006.78
2019-04-14T00:31:37.647Z,1006.75
2019-04-14T00:32:37.924Z,1006.75
2019-04-14T00:33:38.821Z,1006.79
2019-04-14T00:34:37.684Z,1006.80
2019-04-14T00:35:38.567Z,1006.77
2019-04-14T00:36:37.590Z,1006.73
2019-04-14T00:37:38.061Z,1006.75
2019-04-14T00:38:37.549Z,1006.73
2019-04-14T00:39:37.955Z,1006.75
2019-04-14T00:40:37.552Z,1006.71
2019-04-14T00:41:44.816Z,1006.74
2019-04-14T00:42:38.790Z,1006.77
2019-04-14T00:43:37.510Z,1006.72
2019-04-14T00:44:38.666Z,1006.70
2019-04-14T00:45:45.264Z,1006.70
2019-04-14T00:46:38.793Z,1006.72
2019-04-14T00:47:49.825Z,1006.71
2019-04-14T00:48:38.740Z,1006.69
2019-04-14T00:49:37.630Z,1006.73
2019-04-14T00:50:38.679Z,1006.69
2019-04-14T00:51:39.340Z,1006.66
2019-04-14T00:52:37.446Z,1006.67
2019-04-14T00:53:38.178Z,1006.67
2019-04-14T00:54:37.411Z,1006.66
2019-04-14T00:55:37.994Z,1006.63
2019-04-14T00:56:37.362Z,1006.63
2019-04-14T00:57:37.673Z,1006.71
2019-04-14T00:58:37.351Z,1006.70
2019-04-14T00:59:37.616Z,1006.66
2019-04-14T01:00:38.593Z,1006.71
2019-04-14T01:01:37.307Z,1006.69
2019-04-14T01:02:38.489Z,1006.72
2019-04-14T01:03:37.391Z,1006.69
2019-04-14T01:04:38.291Z,1006.73
2019-04-14T01:05:37.519Z,1006.71
2019-04-14T01:06:38.259Z,1006.71
2019-04-14T01:07:37.254Z,1006.71
2019-04-14T01:08:38.095Z,1006.72
2019-04-14T01:09:37.273Z,1006.74
2019-04-14T01:10:37.228Z,1006.71
2019-04-14T01:11:37.851Z,1006.76
2019-04-14T01:12:37.193Z,1006.69
2019-04-14T01:13:37.496Z,1006.72
2019-04-14T01:14:37.272Z,1006.73
2019-04-14T01:15:50.120Z,1006.76
2019-04-14T01:16:38.613Z,1006.76
2019-04-14T01:17:37.382Z,1006.74
2019-04-14T01:18:37.130Z,1006.76
2019-04-14T01:19:37.384Z,1006.80
2019-04-14T01:20:38.259Z,1006.75
2019-04-14T01:21:37.141Z,1006.78
2019-04-14T01:22:38.085Z,1006.75
2019-04-14T01:23:37.077Z,1006.73
2019-04-14T01:24:38.124Z,1006.75
2019-04-14T01:25:37.058Z,1006.77
2019-04-14T01:26:37.800Z,1006.76
2019-04-14T01:27:37.049Z,1006.74
2019-04-14T01:28:37.561Z,1006.72
2019-04-14T01:29:38.372Z,1006.76
2019-04-14T01:30:37.292Z,1006.72
2019-04-14T01:31:38.150Z,1006.75
2019-04-14T01:32:37.233Z,1006.75
2019-04-14T01:33:37.901Z,1006.78
2019-04-14T01:34:37.104Z,1006.79
2019-04-14T01:35:37.901Z,1006.81
2019-04-14T01:36:36.960Z,1006.79
2019-04-14T01:37:37.607Z,1006.81
2019-04-14T01:38:36.933Z,1006.78
2019-04-14T01:39:37.226Z,1006.81
2019-04-14T01:40:38.048Z,1006.82
2019-04-14T01:41:36.901Z,1006.80
2019-04-14T01:42:37.736Z,1006.76
2019-04-14T01:43:36.868Z,1006.79
2019-04-14T01:44:37.367Z,1006.81
2019-04-14T01:45:38.120Z,1006.83
2019-04-14T01:46:37.417Z,1006.81
2019-04-14T01:47:37.718Z,1006.80
2019-04-14T01:48:36.816Z,1006.83
2019-04-14T01:49:37.633Z,1006.84
2019-04-14T01:50:36.799Z,1006.83
2019-04-14T01:51:37.410Z,1006.87
2019-04-14T01:52:36.798Z,1006.89
2019-04-14T01:53:37.843Z,1006.88
2019-04-14T01:54:36.753Z,1006.86
2019-04-14T01:55:37.328Z,1006.87
2019-04-14T01:56:36.732Z,1006.91
2019-04-14T01:57:37.076Z,1006.86
2019-04-14T01:58:36.762Z,1006.85
2019-04-14T01:59:36.952Z,1006.88
2019-04-14T02:00:36.693Z,1006.88
2019-04-14T02:01:36.798Z,1006.89
2019-04-14T02:02:37.712Z,1006.88
2019-04-14T02:03:36.716Z,1006.92
2019-04-14T02:04:37.719Z,1006.89
2019-04-14T02:05:36.637Z,1006.89
2019-04-14T02:06:37.619Z,1006.87
2019-04-14T02:07:36.624Z,1006.89
2019-04-14T02:08:37.231Z,1006.88
2019-04-14T02:09:37.830Z,1006.83
2019-04-14T02:10:36.894Z,1006.83
2019-04-14T02:11:37.698Z,1006.84
2019-04-14T02:12:36.632Z,1006.80
2019-04-14T02:13:37.569Z,1006.81
2019-04-14T02:14:36.573Z,1006.81
2019-04-14T02:15:37.407Z,1006.82
2019-04-14T02:16:44.299Z,1006.82
2019-04-14T02:17:37.511Z,1006.81
2019-04-14T02:18:36.541Z,1006.81
2019-04-14T02:19:37.172Z,1006.79
2019-04-14T02:20:36.482Z,1006.84
2019-04-14T02:21:36.737Z,1006.74
2019-04-14T02:22:37.609Z,1006.76
2019-04-14T02:23:36.642Z,1006.83
2019-04-14T02:24:37.493Z,1006.81
2019-04-14T02:25:36.450Z,1006.78
2019-04-14T02:26:37.346Z,1006.82
2019-04-14T02:27:36.421Z,1006.75
2019-04-14T02:28:37.531Z,1006.75
2019-04-14T02:29:36.408Z,1006.77
2019-04-14T02:30:45.732Z,1006.76
2019-04-14T02:32:05.678Z,1006.78
2019-04-14T02:33:09.105Z,1006.80
2019-04-14T02:34:02.275Z,1006.78
2019-04-14T02:35:02.897Z,1006.81
2019-04-14T02:36:17.954Z,1006.79
2019-04-14T02:37:06.606Z,1006.81
2019-04-14T02:38:13.806Z,1006.79
2019-04-14T02:39:06.148Z,1006.80
2019-04-14T02:40:04.052Z,1006.82
2019-04-14T02:42:19.411Z,1006.82
2019-04-14T02:43:04.075Z,1006.82
2019-04-14T02:44:04.885Z,1006.83
2019-04-14T02:45:08.632Z,1006.84
2019-04-14T02:47:36.383Z,1006.86
2019-04-14T02:51:04.229Z,1006.91
2019-04-14T02:52:04.690Z,1006.91
2019-04-14T02:53:09.109Z,1006.91
2019-04-14T02:54:10.056Z,1006.90
2019-04-14T02:56:08.271Z,1006.90
2019-04-14T02:58:04.347Z,1006.92
2019-04-14T03:01:11.838Z,1006.97
2019-04-14T03:02:19.651Z,1006.95
2019-04-14T03:04:01.472Z,1006.94
2019-04-14T03:07:05.480Z,1006.93
2019-04-14T03:07:59.909Z,1006.92
2019-04-14T03:09:13.855Z,1006.97
2019-04-14T03:10:22.277Z,1006.95
2019-04-14T03:11:01.312Z,1006.98
2019-04-14T03:12:03.013Z,1006.97
2019-04-14T03:13:06.820Z,1006.95
2019-04-14T03:15:01.369Z,1006.94
2019-04-14T03:16:02.170Z,1006.96
2019-04-14T03:17:14.658Z,1006.94
2019-04-14T03:18:57.918Z,1006.87
2019-04-14T03:21:04.398Z,1006.97
2019-04-14T03:22:13.111Z,1006.87
2019-04-14T03:22:55.676Z,1006.84
2019-04-14T03:24:06.052Z,1006.92
2019-04-14T03:24:50.390Z,1006.91
2019-04-14T03:25:57.410Z,1006.91
2019-04-14T03:27:24.779Z,1006.89
2019-04-14T03:28:04.168Z,1006.90
2019-04-14T03:28:56.467Z,1006.92
2019-04-14T03:31:24.631Z,1006.91
2019-04-14T03:34:30.367Z,1006.93
2019-04-14T03:35:23.256Z,1006.91
2019-04-14T03:38:12.836Z,1006.90
2019-04-14T03:39:05.989Z,1006.93
2019-04-14T03:39:57.264Z,1006.94
2019-04-14T03:41:08.885Z,1006.93
2019-04-14T03:42:01.623Z,1006.92
2019-04-14T03:44:07.166Z,1006.95
2019-04-14T03:45:04.177Z,1006.90
2019-04-14T03:46:12.863Z,1006.86
2019-04-14T03:48:34.439Z,1006.94
2019-04-14T03:50:06.141Z,1006.87
2019-04-14T03:51:06.828Z,1006.92
2019-04-14T03:52:02.489Z,1006.91
2019-04-14T03:53:05.889Z,1006.90
2019-04-14T03:53:58.678Z,1006.89
2019-04-14T03:54:55.250Z,1006.93
2019-04-14T03:55:45.326Z,1006.89
2019-04-14T03:56:37.545Z,1006.87
2019-04-14T03:57:36.620Z,1006.92
2019-04-14T03:58:35.773Z,1006.91
2019-04-14T03:59:36.669Z,1006.92
2019-04-14T04:00:35.672Z,1006.89
2019-04-14T04:01:36.654Z,1006.91
2019-04-14T04:02:35.949Z,1006.87
2019-04-14T04:03:35.413Z,1006.86
2019-04-14T04:04:35.851Z,1006.85
2019-04-14T04:05:36.675Z,1006.85
2019-04-14T04:06:35.641Z,1006.85
2019-04-14T04:07:36.411Z,1006.84
2019-04-14T04:08:35.542Z,1006.85
2019-04-14T04:09:36.432Z,1006.83
2019-04-14T04:10:35.702Z,1006.83
2019-04-14T04:11:36.544Z,1006.81
2019-04-14T04:12:35.763Z,1006.78
2019-04-14T04:13:36.558Z,1006.85
2019-04-14T04:14:35.732Z,1006.84
2019-04-14T04:15:36.427Z,1006.82
2019-04-14T04:16:35.514Z,1006.81
2019-04-14T04:17:36.294Z,1006.81
2019-04-14T04:18:47.449Z,1006.86
2019-04-14T04:19:36.239Z,1006.90
2019-04-14T04:20:35.267Z,1006.87
2019-04-14T04:21:35.569Z,1006.92
2019-04-14T04:22:35.198Z,1006.93
2019-04-14T04:23:35.652Z,1006.90
2019-04-14T04:24:35.218Z,1006.90
2019-04-14T04:25:35.372Z,1006.86
2019-04-14T04:26:36.476Z,1006.83
2019-04-14T04:27:35.243Z,1006.87
2019-04-14T04:28:36.326Z,1006.91
2019-04-14T04:29:35.159Z,1006.89
2019-04-14T04:30:36.209Z,1006.90
2019-04-14T04:31:35.118Z,1006.85
2019-04-14T04:32:36.238Z,1006.89
2019-04-14T04:33:35.080Z,1006.87
2019-04-14T04:34:35.859Z,1006.85
2019-04-14T04:35:35.063Z,1006.91
2019-04-14T04:36:35.643Z,1006.88
2019-04-14T04:37:35.040Z,1006.89
2019-04-14T04:38:35.582Z,1006.88
2019-04-14T04:39:36.563Z,1006.92
2019-04-14T04:40:35.344Z,1006.93
2019-04-14T04:41:36.328Z,1006.90
2019-04-14T04:42:35.169Z,1006.88
2019-04-14T04:43:34.986Z,1006.86
2019-04-14T04:44:35.638Z,1006.84
2019-04-14T04:45:34.961Z,1006.88
2019-04-14T04:46:35.167Z,1006.86
2019-04-14T04:47:36.168Z,1006.90
2019-04-14T04:48:35.022Z,1006.91
2019-04-14T04:49:36.059Z,1006.91
2019-04-14T04:50:34.916Z,1006.89
2019-04-14T04:51:35.702Z,1006.87
2019-04-14T04:52:34.891Z,1006.85
2019-04-14T04:53:35.417Z,1006.86
2019-04-14T04:54:34.875Z,1006.91
2019-04-14T04:55:35.167Z,1006.89
2019-04-14T04:56:34.840Z,1006.91
2019-04-14T04:57:35.166Z,1006.93
2019-04-14T04:58:34.891Z,1006.98
2019-04-14T04:59:34.824Z,1007.00
2019-04-14T05:00:35.259Z,1007.00
2019-04-14T05:01:34.831Z,1007.02
2019-04-14T05:02:35.289Z,1007.07
2019-04-14T05:03:34.766Z,1007.04
2019-04-14T05:04:35.106Z,1007.02
2019-04-14T05:05:34.758Z,1007.06
2019-04-14T05:06:35.124Z,1007.05
2019-04-14T05:07:34.763Z,1007.02
2019-04-14T05:08:34.860Z,1007.06
2019-04-14T05:09:34.703Z,1007.04
2019-04-14T05:10:34.999Z,1007.04
2019-04-14T05:11:34.686Z,1007.07
2019-04-14T05:12:34.919Z,1007.10
2019-04-14T05:13:35.901Z,1007.03
2019-04-14T05:14:34.805Z,1007.04
2019-04-14T05:15:35.562Z,1007.03
2019-04-14T05:16:34.655Z,1007.05
2019-04-14T05:17:34.620Z,1007.08
2019-04-14T05:18:35.554Z,1007.09
2019-04-14T05:19:36.547Z,1007.09
2019-04-14T05:20:35.605Z,1007.08
2019-04-14T05:21:34.583Z,1007.09
2019-04-14T05:22:35.393Z,1007.10
2019-04-14T05:23:34.562Z,1007.13
2019-04-14T05:24:35.351Z,1007.15
2019-04-14T05:25:34.547Z,1007.10
2019-04-14T05:26:35.132Z,1007.10
2019-04-14T05:27:34.551Z,1007.13
2019-04-14T05:28:35.280Z,1007.15
2019-04-14T05:29:34.509Z,1007.13
2019-04-14T05:30:34.988Z,1007.17
2019-04-14T05:31:34.476Z,1007.18
2019-04-14T05:32:34.774Z,1007.13
2019-04-14T05:33:34.475Z,1007.19
2019-04-14T05:34:34.769Z,1007.17
2019-04-14T05:35:34.447Z,1007.15
2019-04-14T05:36:34.648Z,1007.20
2019-04-14T05:37:35.463Z,1007.19
2019-04-14T05:38:35.505Z,1007.23
2019-04-14T05:39:35.421Z,1007.25
2019-04-14T05:40:34.413Z,1007.23
2019-04-14T05:41:35.415Z,1007.19
2019-04-14T05:42:34.359Z,1007.22
2019-04-14T05:43:43.843Z,1007.24
2019-04-14T05:44:36.107Z,1007.24
2019-04-14T05:45:35.119Z,1007.24
2019-04-14T05:46:34.321Z,1007.24
2019-04-14T05:47:34.997Z,1007.23
2019-04-14T05:48:34.353Z,1007.28
2019-04-14T05:49:41.108Z,1007.30
2019-04-14T05:50:35.695Z,1007.28
2019-04-14T05:51:35.094Z,1007.33
2019-04-14T05:52:34.258Z,1007.34
2019-04-14T05:53:35.120Z,1007.30
2019-04-14T05:54:34.252Z,1007.35
2019-04-14T05:55:35.169Z,1007.37
2019-04-14T05:56:36.118Z,1007.35
2019-04-14T05:57:35.168Z,1007.37
2019-04-14T05:58:34.199Z,1007.38
2019-04-14T05:59:35.235Z,1007.40
2019-04-14T06:00:34.260Z,1007.39
2019-04-14T06:01:34.185Z,1007.42
2019-04-14T06:02:35.508Z,1007.43
2019-04-14T06:03:34.280Z,1007.40
2019-04-14T06:04:35.235Z,1007.44
2019-04-14T06:05:34.141Z,1007.44
2019-04-14T06:06:34.116Z,1007.43
2019-04-14T06:07:34.169Z,1007.46
2019-04-14T06:08:34.099Z,1007.48
2019-04-14T06:09:34.083Z,1007.45
2019-04-14T06:10:34.081Z,1007.43
2019-04-14T06:11:34.082Z,1007.49
2019-04-14T06:12:34.050Z,1007.42
2019-04-14T06:13:34.046Z,1007.48
2019-04-14T06:14:34.041Z,1007.45
2019-04-14T06:15:34.021Z,1007.48
2019-04-14T06:16:34.015Z,1007.44
2019-04-14T06:17:34.008Z,1007.49
2019-04-14T06:18:33.989Z,1007.50
2019-04-14T06:19:39.041Z,1007.49
2019-04-14T06:20:34.966Z,1007.47
2019-04-14T06:21:33.966Z,1007.46
2019-04-14T06:22:33.957Z,1007.52
2019-04-14T06:23:33.934Z,1007.49
2019-04-14T06:24:33.939Z,1007.49
2019-04-14T06:25:36.264Z,1007.47
2019-04-14T06:26:33.952Z,1007.50
2019-04-14T06:27:33.893Z,1007.51
2019-04-14T06:28:33.911Z,1007.53
2019-04-14T06:29:33.871Z,1007.47
2019-04-14T06:30:33.882Z,1007.49
2019-04-14T06:31:33.860Z,1007.51
2019-04-14T06:32:33.843Z,1007.48
2019-04-14T06:33:33.844Z,1007.46
2019-04-14T06:34:33.920Z,1007.48
2019-04-14T06:35:33.844Z,1007.46
2019-04-14T06:36:33.826Z,1007.44
2019-04-14T06:37:33.825Z,1007.40
2019-04-14T06:38:33.812Z,1007.42
2019-04-14T06:39:33.770Z,1007.45
2019-04-14T06:40:33.781Z,1007.43
2019-04-14T06:41:33.745Z,1007.42
2019-04-14T06:42:33.856Z,1007.37
2019-04-14T06:43:33.753Z,1007.48
2019-04-14T06:44:33.736Z,1007.41
2019-04-14T06:45:33.727Z,1007.47
2019-04-14T06:46:33.725Z,1007.43
2019-04-14T06:47:33.710Z,1007.39
2019-04-14T06:48:33.679Z,1007.43
2019-04-14T06:49:33.684Z,1007.43
2019-04-14T06:50:33.669Z,1007.39
2019-04-14T06:51:33.747Z,1007.40
2019-04-14T06:52:33.866Z,1007.41
2019-04-14T06:53:33.687Z,1007.42
2019-04-14T06:54:33.693Z,1007.36
2019-04-14T06:55:33.689Z,1007.37
2019-04-14T06:56:33.603Z,1007.42
2019-04-14T06:57:33.635Z,1007.39
2019-04-14T06:58:33.590Z,1007.40
2019-04-14T06:59:33.562Z,1007.40
2019-04-14T07:00:33.632Z,1007.41
2019-04-14T07:01:33.540Z,1007.42
2019-04-14T07:02:33.542Z,1007.45
2019-04-14T07:03:33.561Z,1007.45
2019-04-14T07:04:33.656Z,1007.45
2019-04-14T07:05:33.491Z,1007.47
2019-04-14T07:06:33.492Z,1007.51
2019-04-14T07:07:33.578Z,1007.50
2019-04-14T07:08:33.678Z,1007.53
2019-04-14T07:09:33.611Z,1007.53
2019-04-14T07:10:33.474Z,1007.56
2019-04-14T07:11:33.439Z,1007.54
2019-04-14T07:12:33.474Z,1007.58
2019-04-14T07:13:33.575Z,1007.57
2019-04-14T07:14:33.439Z,1007.58
2019-04-14T07:15:33.427Z,1007.56
2019-04-14T07:16:33.391Z,1007.58
2019-04-14T07:17:33.394Z,1007.62
2019-04-14T07:18:33.384Z,1007.58
2019-04-14T07:19:33.347Z,1007.54
2019-04-14T07:20:33.355Z,1007.61
2019-04-14T07:21:33.372Z,1007.58
2019-04-14T07:22:33.313Z,1007.59
2019-04-14T07:23:33.333Z,1007.62
2019-04-14T07:24:33.291Z,1007.63
2019-04-14T07:25:33.373Z,1007.65
2019-04-14T07:26:33.311Z,1007.64
2019-04-14T07:27:33.288Z,1007.67
2019-04-14T07:28:33.268Z,1007.60
2019-04-14T07:29:33.237Z,1007.64
2019-04-14T07:30:33.235Z,1007.69
2019-04-14T07:31:33.230Z,1007.62
2019-04-14T07:32:33.206Z,1007.67
2019-04-14T07:33:33.200Z,1007.65
2019-04-14T07:34:36.110Z,1007.69
2019-04-14T07:35:33.171Z,1007.71
2019-04-14T07:36:33.223Z,1007.67
2019-04-14T07:37:33.167Z,1007.63
2019-04-14T07:38:33.156Z,1007.64
2019-04-14T07:39:33.145Z,1007.64
2019-04-14T07:40:33.172Z,1007.66
2019-04-14T07:41:33.116Z,1007.69
2019-04-14T07:42:33.148Z,1007.64
2019-04-14T07:43:33.120Z,1007.62
2019-04-14T07:44:33.087Z,1007.66
2019-04-14T07:45:33.110Z,1007.58
2019-04-14T07:46:33.251Z,1007.63
2019-04-14T07:47:33.117Z,1007.63
2019-04-14T07:48:33.042Z,1007.57
2019-04-14T07:49:33.028Z,1007.58
2019-04-14T07:50:33.018Z,1007.57
2019-04-14T07:51:33.013Z,1007.60
2019-04-14T07:52:33.030Z,1007.61
2019-04-14T07:53:32.981Z,1007.54
2019-04-14T07:54:32.975Z,1007.57
2019-04-14T07:55:32.953Z,1007.60
2019-04-14T07:56:32.988Z,1007.64
2019-04-14T07:57:32.946Z,1007.65
2019-04-14T07:58:32.928Z,1007.65
2019-04-14T07:59:32.938Z,1007.63
2019-04-14T08:00:32.912Z,1007.59
2019-04-14T08:01:32.892Z,1007.59
2019-04-14T08:02:32.896Z,1007.55
2019-04-14T08:03:32.869Z,1007.53
2019-04-14T08:04:32.861Z,1007.51
2019-04-14T08:05:32.847Z,1007.49
2019-04-14T08:06:32.868Z,1007.51
2019-04-14T08:07:32.873Z,1007.53
2019-04-14T08:08:32.820Z,1007.55
2019-04-14T08:09:32.850Z,1007.52
2019-04-14T08:10:32.794Z,1007.54
2019-04-14T08:11:32.782Z,1007.51
2019-04-14T08:12:35.124Z,1007.52
2019-04-14T08:13:32.847Z,1007.54
2019-04-14T08:14:32.758Z,1007.54
2019-04-14T08:15:32.754Z,1007.52
2019-04-14T08:16:32.727Z,1007.51
2019-04-14T08:17:32.714Z,1007.59
2019-04-14T08:18:32.731Z,1007.60
2019-04-14T08:19:32.752Z,1007.56
2019-04-14T08:20:32.682Z,1007.64
2019-04-14T08:21:32.674Z,1007.56
2019-04-14T08:22:32.680Z,1007.62
2019-04-14T08:23:32.692Z,1007.60
2019-04-14T08:24:32.653Z,1007.60
2019-04-14T08:25:32.665Z,1007.73
2019-04-14T08:26:32.623Z,1007.65
2019-04-14T08:27:32.666Z,1007.82
2019-04-14T08:28:32.599Z,1007.83
2019-04-14T08:29:32.616Z,1007.84
2019-04-14T08:30:32.593Z,1007.78
2019-04-14T08:31:32.566Z,1007.69
2019-04-14T08:32:32.555Z,1007.84
2019-04-14T08:33:32.549Z,1007.89
2019-04-14T08:34:32.558Z,1007.96
2019-04-14T08:35:32.525Z,1007.96
2019-04-14T08:36:33.354Z,1007.74
2019-04-14T08:37:32.516Z,1007.86
2019-04-14T08:38:32.490Z,1008.04
2019-04-14T08:39:32.501Z,1007.82
2019-04-14T08:40:32.475Z,1008.07
2019-04-14T08:41:32.483Z,1007.94
2019-04-14T08:42:32.517Z,1008.11
2019-04-14T08:43:32.459Z,1008.14
2019-04-14T08:44:32.426Z,1008.08
2019-04-14T08:45:32.418Z,1008.06
2019-04-14T08:46:32.443Z,1008.08
2019-04-14T08:47:32.432Z,1008.12
2019-04-14T08:48:32.407Z,1008.16
2019-04-14T08:49:32.371Z,1008.15
2019-04-14T08:50:39.360Z,1008.14
2019-04-14T08:51:33.367Z,1008.15
2019-04-14T08:52:32.376Z,1008.10
2019-04-14T08:53:32.329Z,1008.18
2019-04-14T08:54:32.320Z,1008.10
2019-04-14T08:55:32.381Z,1008.12
2019-04-14T08:56:32.363Z,1008.16
2019-04-14T08:57:32.291Z,1008.03
2019-04-14T08:58:32.318Z,1008.10
2019-04-14T08:59:32.281Z,1008.16
2019-04-14T09:00:32.317Z,1008.12
2019-04-14T09:01:32.246Z,1008.18
2019-04-14T09:02:32.248Z,1008.18
2019-04-14T09:03:32.233Z,1008.25
2019-04-14T09:04:32.216Z,1008.20
2019-04-14T09:05:32.224Z,1008.21
2019-04-14T09:06:32.264Z,1008.18
2019-04-14T09:07:32.186Z,1008.23
2019-04-14T09:08:32.193Z,1008.15
2019-04-14T09:09:32.166Z,1008.18
2019-04-14T09:10:32.153Z,1008.25
2019-04-14T09:11:32.144Z,1008.22
2019-04-14T09:12:32.179Z,1008.17
2019-04-14T09:13:32.122Z,1008.15
2019-04-14T09:14:32.123Z,1008.19
2019-04-14T09:15:32.119Z,1008.23
2019-04-14T09:16:32.091Z,1008.23
2019-04-14T09:17:32.081Z,1008.18
2019-04-14T09:18:32.084Z,1008.19
2019-04-14T09:19:32.075Z,1008.17
2019-04-14T09:20:32.052Z,1008.19
2019-04-14T09:21:32.041Z,1008.18
2019-04-14T09:22:32.031Z,1008.26
2019-04-14T09:23:32.022Z,1007.82
2019-04-14T09:24:32.053Z,1007.79
2019-04-14T09:25:32.001Z,1007.76
2019-04-14T09:26:31.991Z,1008.26
2019-04-14T09:27:32.046Z,1008.22
2019-04-14T09:28:32.010Z,1008.22
2019-04-14T09:29:31.962Z,1008.23
2019-04-14T09:30:31.990Z,1008.21
2019-04-14T09:31:31.942Z,1008.14
2019-04-14T09:32:31.930Z,1008.19
2019-04-14T09:33:31.939Z,1008.17
2019-04-14T09:34:31.928Z,1008.24
2019-04-14T09:35:31.900Z,1008.18
2019-04-14T09:36:31.931Z,1008.18
2019-04-14T09:37:31.879Z,1008.14
2019-04-14T09:38:31.908Z,1008.13
2019-04-14T09:39:31.865Z,1008.22
2019-04-14T09:40:31.849Z,1007.81
2019-04-14T09:41:31.853Z,1008.24
2019-04-14T09:42:31.891Z,1008.20
2019-04-14T09:43:31.822Z,1007.83
2019-04-14T09:44:31.809Z,1007.80
2019-04-14T09:45:31.801Z,1007.75
2019-04-14T09:46:31.803Z,1008.05
2019-04-14T09:47:31.783Z,1008.13
2019-04-14T09:48:31.872Z,1007.74
2019-04-14T09:49:31.758Z,1007.75
2019-04-14T09:50:31.748Z,1007.93
2019-04-14T09:51:31.774Z,1007.84
2019-04-14T09:52:31.729Z,1007.73
2019-04-14T09:53:31.734Z,1007.64
2019-04-14T09:54:31.766Z,1007.65
2019-04-14T09:55:31.699Z,1007.64
2019-04-14T09:56:31.687Z,1007.87
2019-04-14T09:57:31.679Z,1007.75
2019-04-14T09:58:31.668Z,1008.00
2019-04-14T09:59:31.654Z,1008.05
2019-04-14T10:00:31.699Z,1008.15
2019-04-14T10:01:31.649Z,1008.10
2019-04-14T10:02:31.633Z,1007.68
2019-04-14T10:03:31.672Z,1007.65
2019-04-14T10:04:31.601Z,1007.79
2019-04-14T10:05:31.590Z,1008.11
2019-04-14T10:06:31.638Z,1007.98
2019-04-14T10:07:31.569Z,1008.00
2019-04-14T10:08:31.568Z,1008.01
2019-04-14T10:09:31.549Z,1007.97
2019-04-14T10:10:31.537Z,1008.09
2019-04-14T10:11:31.548Z,1008.11
2019-04-14T10:12:31.555Z,1008.12
2019-04-14T10:13:31.507Z,1008.10
2019-04-14T10:14:31.509Z,1008.14
2019-04-14T10:15:31.485Z,1008.12
2019-04-14T10:16:31.486Z,1008.09
2019-04-14T10:17:31.466Z,1007.85
2019-04-14T10:18:31.495Z,1007.89
2019-04-14T10:19:31.444Z,1007.97
2019-04-14T10:20:31.439Z,1007.95
2019-04-14T10:21:31.462Z,1008.03
2019-04-14T10:22:34.068Z,1007.96
2019-04-14T10:23:31.403Z,1007.98
2019-04-14T10:24:31.427Z,1007.63
2019-04-14T10:25:31.396Z,1007.80
2019-04-14T10:26:31.374Z,1007.97
2019-04-14T10:27:31.359Z,1007.92
2019-04-14T10:28:31.350Z,1007.97
2019-04-14T10:29:31.336Z,1007.98
2019-04-14T10:30:31.355Z,1007.94
2019-04-14T10:31:31.393Z,1007.80
2019-04-14T10:32:31.309Z,1008.01
2019-04-14T10:33:31.295Z,1007.99
2019-04-14T10:34:31.295Z,1007.98
2019-04-14T10:35:31.272Z,1008.03
2019-04-14T10:36:31.277Z,1008.12
2019-04-14T10:37:31.281Z,1008.06
2019-04-14T10:38:31.243Z,1007.84
2019-04-14T10:39:31.230Z,1007.98
2019-04-14T10:40:31.219Z,1007.92
2019-04-14T10:41:31.225Z,1007.69
2019-04-14T10:42:31.198Z,1007.99
2019-04-14T10:43:31.227Z,1007.84
2019-04-14T10:44:31.177Z,1007.70
2019-04-14T10:45:31.166Z,1007.74
2019-04-14T10:46:31.157Z,1007.66
2019-04-14T10:47:31.167Z,1007.72
2019-04-14T10:48:31.136Z,1007.71
2019-04-14T10:49:31.145Z,1007.75
2019-04-14T10:50:31.416Z,1007.67
2019-04-14T10:51:33.955Z,1007.66
2019-04-14T10:52:31.102Z,1007.70
2019-04-14T10:53:31.091Z,1007.62
2019-04-14T10:54:31.071Z,1007.69
2019-04-14T10:55:31.078Z,1007.65
2019-04-14T10:56:31.049Z,1007.65
2019-04-14T10:57:31.064Z,1007.65
2019-04-14T10:58:31.038Z,1007.66
2019-04-14T10:59:31.046Z,1007.68
2019-04-14T11:00:31.009Z,1007.68
2019-04-14T11:01:31.004Z,1007.64
2019-04-14T11:02:30.985Z,1007.72
2019-04-14T11:03:30.989Z,1007.63
2019-04-14T11:04:30.963Z,1007.75
2019-04-14T11:05:30.952Z,1007.71
2019-04-14T11:06:30.941Z,1007.73
2019-04-14T11:07:30.946Z,1007.71
2019-04-14T11:08:30.919Z,1007.78
2019-04-14T11:09:30.930Z,1007.79
2019-04-14T11:10:30.898Z,1007.72
2019-04-14T11:11:30.899Z,1007.76
2019-04-14T11:12:30.901Z,1007.71
2019-04-14T11:13:30.866Z,1007.71
2019-04-14T11:14:30.857Z,1007.68
2019-04-14T11:15:30.857Z,1007.72
2019-04-14T11:16:30.835Z,1007.74
2019-04-14T11:17:30.824Z,1007.76
2019-04-14T11:18:30.855Z,1007.63
2019-04-14T11:19:30.802Z,1007.67
2019-04-14T11:20:30.820Z,1007.67
2019-04-14T11:21:42.012Z,1007.68
2019-04-14T11:22:31.916Z,1007.64
2019-04-14T11:23:30.862Z,1007.65
2019-04-14T11:24:30.772Z,1007.67
2019-04-14T11:25:30.749Z,1007.63
2019-04-14T11:26:30.743Z,1007.63
2019-04-14T11:27:30.734Z,1007.59
2019-04-14T11:28:30.708Z,1007.58
2019-04-14T11:29:30.703Z,1007.60
2019-04-14T11:30:30.786Z,1007.56
2019-04-14T11:31:30.676Z,1007.55
2019-04-14T11:32:30.660Z,1007.56
2019-04-14T11:33:30.689Z,1007.56
2019-04-14T11:34:30.665Z,1007.57
2019-04-14T11:35:30.639Z,1007.54
2019-04-14T11:36:30.619Z,1007.58
2019-04-14T11:37:30.606Z,1007.65
2019-04-14T11:38:30.657Z,1007.53
2019-04-14T11:39:30.590Z,1007.57
2019-04-14T11:40:30.585Z,1007.56
2019-04-14T11:41:30.580Z,1007.50
2019-04-14T11:42:30.554Z,1007.51
2019-04-14T11:43:30.558Z,1007.54
2019-04-14T11:44:30.578Z,1007.53
2019-04-14T11:45:30.546Z,1007.52
2019-04-14T11:46:30.511Z,1007.61
2019-04-14T11:47:30.497Z,1007.58
2019-04-14T11:48:30.485Z,1007.56
2019-04-14T11:49:30.501Z,1007.59
2019-04-14T11:50:30.583Z,1007.53
2019-04-14T11:51:30.458Z,1007.57
2019-04-14T11:52:30.454Z,1007.55
2019-04-14T11:53:30.477Z,1007.49
2019-04-14T11:54:30.441Z,1007.42
2019-04-14T11:55:30.413Z,1007.44
2019-04-14T11:56:30.508Z,1007.45
2019-04-14T11:57:30.411Z,1007.49
2019-04-14T11:58:30.388Z,1007.49
2019-04-14T11:59:30.374Z,1007.51
2019-04-14T12:00:30.371Z,1007.51
2019-04-14T12:01:30.374Z,1007.56
2019-04-14T12:02:30.364Z,1007.47
2019-04-14T12:03:32.286Z,1007.49
2019-04-14T12:04:30.348Z,1007.49
2019-04-14T12:05:30.305Z,1007.53
2019-04-14T12:06:30.315Z,1007.45
2019-04-14T12:07:30.302Z,1007.46
2019-04-14T12:08:30.310Z,1007.47
2019-04-14T12:09:30.264Z,1007.45
2019-04-14T12:10:30.265Z,1007.43
2019-04-14T12:11:30.239Z,1007.43
2019-04-14T12:12:30.241Z,1007.42
2019-04-14T12:13:30.232Z,1007.42
2019-04-14T12:14:30.239Z,1007.37
2019-04-14T12:15:30.247Z,1007.35
2019-04-14T12:16:30.185Z,1007.43
2019-04-14T12:17:30.175Z,1007.39
2019-04-14T12:18:30.164Z,1007.48
2019-04-14T12:19:30.181Z,1007.41
2019-04-14T12:20:30.139Z,1007.37
2019-04-14T12:21:30.158Z,1007.42
2019-04-14T12:22:30.184Z,1007.47
2019-04-14T12:23:30.258Z,1007.46
2019-04-14T12:24:30.119Z,1007.44
2019-04-14T12:25:30.105Z,1007.42
2019-04-14T12:26:30.131Z,1007.40
2019-04-14T12:27:30.062Z,1007.47
2019-04-14T12:28:30.063Z,1007.46